sensor_id;sensor_type;location;lat;lon;timestamp;pressure;altitude;pressure_sealevel;temperature;humidity
57048;BME280;42934;54.294;18.598;2023-04-06T00:01:31;101646.47;;;0.72;74.85
57048;BME280;42934;54.294;18.598;2023-04-06T00:04:00;101640.44;;;0.73;74.25
57048;BME280;42934;54.294;18.598;2023-04-06T00:06:31;101641.38;;;0.76;74.07
57048;BME280;42934;54.294;18.598;2023-04-06T00:09:01;101644.94;;;0.80;74.59
57048;BME280;42934;54.294;18.598;2023-04-06T00:11:30;101648.41;;;0.82;73.96
57048;BME280;42934;54.294;18.598;2023-04-06T00:13:59;101645.09;;;0.86;73.66
57048;BME280;42934;54.294;18.598;2023-04-06T00:16:29;101639.06;;;0.87;73.92
57048;BME280;42934;54.294;18.598;2023-04-06T00:18:58;101636.47;;;0.87;73.96
57048;BME280;42934;54.294;18.598;2023-04-06T00:21:27;101639.03;;;0.85;73.48
57048;BME280;42934;54.294;18.598;2023-04-06T00:23:58;101636.34;;;0.82;73.63
57048;BME280;42934;54.294;18.598;2023-04-06T00:26:27;101629.19;;;0.71;74.16
57048;BME280;42934;54.294;18.598;2023-04-06T00:28:57;101635.78;;;0.56;74.69
57048;BME280;42934;54.294;18.598;2023-04-06T00:31:27;101636.63;;;0.57;73.87
57048;BME280;42934;54.294;18.598;2023-04-06T00:33:57;101638.16;;;0.49;74.44
57048;BME280;42934;54.294;18.598;2023-04-06T00:36:26;101640.78;;;0.15;76.27
57048;BME280;42934;54.294;18.598;2023-04-06T00:38:57;101642.97;;;0.33;75.54
57048;BME280;42934;54.294;18.598;2023-04-06T00:41:26;101635.53;;;0.47;74.38
57048;BME280;42934;54.294;18.598;2023-04-06T00:43:55;101643.81;;;0.34;74.34
57048;BME280;42934;54.294;18.598;2023-04-06T00:46:25;101643.94;;;0.38;74.67
57048;BME280;42934;54.294;18.598;2023-04-06T00:48:54;101635.84;;;0.25;75.02
57048;BME280;42934;54.294;18.598;2023-04-06T00:51:24;101591.28;;;-0.35;76.93
57048;BME280;42934;54.294;18.598;2023-04-06T00:53:54;101633.06;;;0.17;76.35
57048;BME280;42934;54.294;18.598;2023-04-06T00:56:25;101636.59;;;0.20;75.20
57048;BME280;42934;54.294;18.598;2023-04-06T00:58:55;101629.97;;;0.32;74.02
57048;BME280;42934;54.294;18.598;2023-04-06T01:01:25;101621.66;;;0.09;75.17
57048;BME280;42934;54.294;18.598;2023-04-06T01:03:58;101622.66;;;0.14;74.59
57048;BME280;42934;54.294;18.598;2023-04-06T01:06:28;101623.16;;;0.34;73.52
57048;BME280;42934;54.294;18.598;2023-04-06T01:09:01;101618.78;;;0.31;73.80
57048;BME280;42934;54.294;18.598;2023-04-06T01:11:32;101621.00;;;0.16;74.24
57048;BME280;42934;54.294;18.598;2023-04-06T01:14:04;101627.88;;;0.17;74.39
57048;BME280;42934;54.294;18.598;2023-04-06T01:16:58;101627.56;;;0.03;74.43
57048;BME280;42934;54.294;18.598;2023-04-06T01:19:31;101620.63;;;0.02;73.99
57048;BME280;42934;54.294;18.598;2023-04-06T01:22:01;101623.81;;;-0.40;75.65
57048;BME280;42934;54.294;18.598;2023-04-06T01:24:32;101616.41;;;-0.28;75.91
57048;BME280;42934;54.294;18.598;2023-04-06T01:27:09;101614.28;;;-0.11;75.00
57048;BME280;42934;54.294;18.598;2023-04-06T01:30:03;101613.88;;;-0.86;77.13
57048;BME280;42934;54.294;18.598;2023-04-06T01:32:42;101617.75;;;-0.72;77.20
57048;BME280;42934;54.294;18.598;2023-04-06T01:35:15;101614.97;;;-0.48;76.05
57048;BME280;42934;54.294;18.598;2023-04-06T01:37:54;101612.72;;;-0.37;75.58
57048;BME280;42934;54.294;18.598;2023-04-06T01:40:31;101614.75;;;-0.26;74.80
57048;BME280;42934;54.294;18.598;2023-04-06T01:43:00;101607.66;;;-0.33;74.84
57048;BME280;42934;54.294;18.598;2023-04-06T01:45:35;101609.34;;;-0.65;75.74
57048;BME280;42934;54.294;18.598;2023-04-06T01:48:15;101613.63;;;-0.65;76.09
57048;BME280;42934;54.294;18.598;2023-04-06T01:50:44;101617.75;;;-0.72;76.57
57048;BME280;42934;54.294;18.598;2023-04-06T01:53:18;101615.38;;;-1.23;78.27
57048;BME280;42934;54.294;18.598;2023-04-06T01:55:49;101609.72;;;-1.11;78.45
57048;BME280;42934;54.294;18.598;2023-04-06T01:58:26;101617.94;;;-1.23;78.80
57048;BME280;42934;54.294;18.598;2023-04-06T02:00:55;101617.94;;;-0.95;77.28
57048;BME280;42934;54.294;18.598;2023-04-06T02:03:25;101616.84;;;-1.30;78.47
57048;BME280;42934;54.294;18.598;2023-04-06T02:06:03;101617.63;;;-1.32;78.80
57048;BME280;42934;54.294;18.598;2023-04-06T02:08:38;101612.63;;;-1.28;78.41
57048;BME280;42934;54.294;18.598;2023-04-06T02:11:08;101617.03;;;-1.24;78.44
57048;BME280;42934;54.294;18.598;2023-04-06T02:13:46;101618.19;;;-0.85;77.21
57048;BME280;42934;54.294;18.598;2023-04-06T02:16:16;101620.78;;;-0.85;76.37
57048;BME280;42934;54.294;18.598;2023-04-06T02:18:46;101614.47;;;-0.97;75.99
57048;BME280;42934;54.294;18.598;2023-04-06T02:21:16;101612.09;;;-1.18;77.19
57048;BME280;42934;54.294;18.598;2023-04-06T02:23:48;101617.66;;;-1.04;76.87
57048;BME280;42934;54.294;18.598;2023-04-06T02:26:19;101620.25;;;-0.74;75.66
57048;BME280;42934;54.294;18.598;2023-04-06T02:28:49;101614.38;;;-0.70;74.84
57048;BME280;42934;54.294;18.598;2023-04-06T02:31:18;101616.63;;;-1.09;76.36
57048;BME280;42934;54.294;18.598;2023-04-06T02:33:47;101621.59;;;-1.44;77.60
57048;BME280;42934;54.294;18.598;2023-04-06T02:36:17;101622.59;;;-1.11;77.10
57048;BME280;42934;54.294;18.598;2023-04-06T02:38:46;101620.09;;;-0.80;75.14
57048;BME280;42934;54.294;18.598;2023-04-06T02:41:18;101615.22;;;-0.99;75.77
57048;BME280;42934;54.294;18.598;2023-04-06T02:43:48;101624.19;;;-1.15;76.25
57048;BME280;42934;54.294;18.598;2023-04-06T02:46:31;101625.63;;;-1.25;76.97
57048;BME280;42934;54.294;18.598;2023-04-06T02:49:01;101622.50;;;-1.42;77.03
57048;BME280;42934;54.294;18.598;2023-04-06T02:51:32;101622.09;;;-1.00;75.97
57048;BME280;42934;54.294;18.598;2023-04-06T02:54:18;101623.31;;;-1.16;75.94
57048;BME280;42934;54.294;18.598;2023-04-06T02:56:49;101623.81;;;-1.27;77.42
57048;BME280;42934;54.294;18.598;2023-04-06T02:59:19;101623.38;;;-1.14;77.18
57048;BME280;42934;54.294;18.598;2023-04-06T03:02:00;101623.69;;;-1.03;76.82
57048;BME280;42934;54.294;18.598;2023-04-06T03:04:30;101620.50;;;-0.95;76.38
57048;BME280;42934;54.294;18.598;2023-04-06T03:07:01;101629.53;;;-1.09;76.26
57048;BME280;42934;54.294;18.598;2023-04-06T03:09:37;101616.75;;;-1.06;76.38
57048;BME280;42934;54.294;18.598;2023-04-06T03:12:08;101619.03;;;-0.86;75.25
57048;BME280;42934;54.294;18.598;2023-04-06T03:15:04;101617.75;;;-0.72;74.33
57048;BME280;42934;54.294;18.598;2023-04-06T03:17:34;101621.56;;;-1.17;75.76
57048;BME280;42934;54.294;18.598;2023-04-06T03:20:09;101627.69;;;-1.67;77.76
57048;BME280;42934;54.294;18.598;2023-04-06T03:22:38;101629.97;;;-1.76;77.99
57048;BME280;42934;54.294;18.598;2023-04-06T03:25:11;101624.66;;;-2.07;79.28
57048;BME280;42934;54.294;18.598;2023-04-06T03:27:45;101630.28;;;-1.67;78.02
57048;BME280;42934;54.294;18.598;2023-04-06T03:30:18;101628.94;;;-1.29;77.03
57048;BME280;42934;54.294;18.598;2023-04-06T03:32:47;101622.78;;;-1.05;75.86
57048;BME280;42934;54.294;18.598;2023-04-06T03:35:16;101622.22;;;-0.95;74.59
57048;BME280;42934;54.294;18.598;2023-04-06T03:37:46;101634.22;;;-0.96;74.80
57048;BME280;42934;54.294;18.598;2023-04-06T03:40:15;101627.16;;;-1.03;75.39
57048;BME280;42934;54.294;18.598;2023-04-06T03:42:46;101636.19;;;-1.16;76.24
57048;BME280;42934;54.294;18.598;2023-04-06T03:45:16;101643.75;;;-1.22;76.14
57048;BME280;42934;54.294;18.598;2023-04-06T03:47:48;101642.09;;;-1.47;76.75
57048;BME280;42934;54.294;18.598;2023-04-06T03:50:19;101649.78;;;-1.74;78.03
57048;BME280;42934;54.294;18.598;2023-04-06T03:52:48;101651.44;;;-1.76;78.73
57048;BME280;42934;54.294;18.598;2023-04-06T03:55:18;101648.53;;;-1.32;77.50
57048;BME280;42934;54.294;18.598;2023-04-06T03:57:49;101656.25;;;-1.34;77.37
57048;BME280;42934;54.294;18.598;2023-04-06T04:00:18;101651.47;;;-1.22;76.85
57048;BME280;42934;54.294;18.598;2023-04-06T04:02:47;101654.09;;;-0.93;75.18
57048;BME280;42934;54.294;18.598;2023-04-06T04:05:17;101661.06;;;-0.89;74.22
57048;BME280;42934;54.294;18.598;2023-04-06T04:07:46;101655.78;;;-1.21;76.32
57048;BME280;42934;54.294;18.598;2023-04-06T04:10:16;101657.66;;;-1.17;76.13
57048;BME280;42934;54.294;18.598;2023-04-06T04:12:47;101661.19;;;-1.40;77.52
57048;BME280;42934;54.294;18.598;2023-04-06T04:15:17;101662.94;;;-1.39;77.69
57048;BME280;42934;54.294;18.598;2023-04-06T04:17:47;101664.38;;;-1.47;78.49
57048;BME280;42934;54.294;18.598;2023-04-06T04:20:17;101656.97;;;-1.38;78.61
57048;BME280;42934;54.294;18.598;2023-04-06T04:22:46;101656.41;;;-1.29;78.32
57048;BME280;42934;54.294;18.598;2023-04-06T04:25:16;101658.59;;;-1.15;77.78
57048;BME280;42934;54.294;18.598;2023-04-06T04:27:50;101656.31;;;-1.04;77.84
57048;BME280;42934;54.294;18.598;2023-04-06T04:30:21;101656.19;;;-1.08;77.80
57048;BME280;42934;54.294;18.598;2023-04-06T04:32:50;101653.63;;;-1.08;77.61
57048;BME280;42934;54.294;18.598;2023-04-06T04:35:22;101661.72;;;-0.96;77.16
57048;BME280;42934;54.294;18.598;2023-04-06T04:37:52;101656.28;;;-0.77;76.54
57048;BME280;42934;54.294;18.598;2023-04-06T04:40:21;101654.09;;;-0.64;74.96
57048;BME280;42934;54.294;18.598;2023-04-06T04:42:57;101656.69;;;-0.92;76.21
57048;BME280;42934;54.294;18.598;2023-04-06T04:45:31;101651.50;;;-0.93;77.33
57048;BME280;42934;54.294;18.598;2023-04-06T04:48:11;101659.34;;;-0.90;77.40
57048;BME280;42934;54.294;18.598;2023-04-06T04:50:52;101659.34;;;-0.90;77.88
57048;BME280;42934;54.294;18.598;2023-04-06T04:53:26;101655.88;;;-0.90;77.86
57048;BME280;42934;54.294;18.598;2023-04-06T04:56:02;101656.19;;;-0.80;77.82
57048;BME280;42934;54.294;18.598;2023-04-06T04:58:33;101659.66;;;-0.79;77.23
57048;BME280;42934;54.294;18.598;2023-04-06T05:01:04;101648.41;;;-0.81;77.94
57048;BME280;42934;54.294;18.598;2023-04-06T05:03:33;101659.34;;;-0.60;77.57
57048;BME280;42934;54.294;18.598;2023-04-06T05:06:06;101661.84;;;-0.63;78.14
57048;BME280;42934;54.294;18.598;2023-04-06T05:08:40;101662.59;;;-0.67;78.46
57048;BME280;42934;54.294;18.598;2023-04-06T05:11:10;101664.75;;;-0.52;77.81
57048;BME280;42934;54.294;18.598;2023-04-06T05:13:46;101662.78;;;-0.31;76.49
57048;BME280;42934;54.294;18.598;2023-04-06T05:16:20;101661.75;;;-0.36;76.78
57048;BME280;42934;54.294;18.598;2023-04-06T05:18:50;101661.94;;;-0.30;77.05
57048;BME280;42934;54.294;18.598;2023-04-06T05:21:21;101666.63;;;-0.16;76.80
57048;BME280;42934;54.294;18.598;2023-04-06T05:24:04;101674.75;;;-0.03;76.78
57048;BME280;42934;54.294;18.598;2023-04-06T05:26:34;101673.75;;;-0.06;76.94
57048;BME280;42934;54.294;18.598;2023-04-06T05:29:11;101661.06;;;0.02;77.08
57048;BME280;42934;54.294;18.598;2023-04-06T05:31:42;101671.88;;;0.20;76.27
57048;BME280;42934;54.294;18.598;2023-04-06T05:34:11;101675.59;;;0.30;75.24
57048;BME280;42934;54.294;18.598;2023-04-06T05:36:41;101674.06;;;0.38;74.55
57048;BME280;42934;54.294;18.598;2023-04-06T05:39:23;101677.63;;;0.43;74.69
57048;BME280;42934;54.294;18.598;2023-04-06T05:41:54;101669.94;;;0.44;74.60
57048;BME280;42934;54.294;18.598;2023-04-06T05:44:37;101675.13;;;0.46;74.43
57048;BME280;42934;54.294;18.598;2023-04-06T05:47:11;101670.09;;;0.52;74.38
57048;BME280;42934;54.294;18.598;2023-04-06T05:49:42;101665.88;;;0.56;74.57
57048;BME280;42934;54.294;18.598;2023-04-06T05:52:18;101660.13;;;0.67;73.95
57048;BME280;42934;54.294;18.598;2023-04-06T05:54:49;101662.13;;;0.79;73.17
57048;BME280;42934;54.294;18.598;2023-04-06T05:57:18;101663.19;;;0.86;73.17
57048;BME280;42934;54.294;18.598;2023-04-06T05:59:49;101666.78;;;0.94;72.81
57048;BME280;42934;54.294;18.598;2023-04-06T06:02:20;101662.59;;;0.99;72.65
57048;BME280;42934;54.294;18.598;2023-04-06T06:04:52;101664.47;;;1.05;73.15
57048;BME280;42934;54.294;18.598;2023-04-06T06:07:21;101667.16;;;1.09;72.44
57048;BME280;42934;54.294;18.598;2023-04-06T06:09:57;101668.13;;;1.14;71.01
57048;BME280;42934;54.294;18.598;2023-04-06T06:12:33;101662.19;;;1.19;70.45
57048;BME280;42934;54.294;18.598;2023-04-06T06:15:04;101663.31;;;1.31;70.23
57048;BME280;42934;54.294;18.598;2023-04-06T06:17:38;101663.38;;;1.34;69.58
57048;BME280;42934;54.294;18.598;2023-04-06T06:20:08;101661.91;;;1.46;70.68
57048;BME280;42934;54.294;18.598;2023-04-06T06:22:38;101668.06;;;1.52;70.54
57048;BME280;42934;54.294;18.598;2023-04-06T06:25:11;101660.59;;;1.66;70.38
57048;BME280;42934;54.294;18.598;2023-04-06T06:27:41;101665.22;;;1.81;71.32
57048;BME280;42934;54.294;18.598;2023-04-06T06:30:12;101654.09;;;1.87;70.54
57048;BME280;42934;54.294;18.598;2023-04-06T06:32:45;101659.53;;;2.00;69.95
57048;BME280;42934;54.294;18.598;2023-04-06T06:35:15;101659.72;;;2.11;70.90
57048;BME280;42934;54.294;18.598;2023-04-06T06:37:44;101665.19;;;2.26;69.88
57048;BME280;42934;54.294;18.598;2023-04-06T06:40:17;101661.94;;;2.38;69.35
57048;BME280;42934;54.294;18.598;2023-04-06T06:42:48;101660.22;;;2.39;68.98
57048;BME280;42934;54.294;18.598;2023-04-06T06:45:34;101660.28;;;2.43;68.73
57048;BME280;42934;54.294;18.598;2023-04-06T06:48:03;101662.88;;;2.43;68.37
57048;BME280;42934;54.294;18.598;2023-04-06T06:50:33;101668.16;;;2.49;68.60
57048;BME280;42934;54.294;18.598;2023-04-06T06:53:02;101670.78;;;2.51;69.80
57048;BME280;42934;54.294;18.598;2023-04-06T06:55:31;101664.69;;;2.49;69.81
57048;BME280;42934;54.294;18.598;2023-04-06T06:58:01;101658.88;;;2.62;69.54
57048;BME280;42934;54.294;18.598;2023-04-06T07:00:30;101665.00;;;2.66;70.16
57048;BME280;42934;54.294;18.598;2023-04-06T07:03:01;101659.91;;;2.73;70.20
57048;BME280;42934;54.294;18.598;2023-04-06T07:05:31;101653.16;;;2.83;69.97
57048;BME280;42934;54.294;18.598;2023-04-06T07:08:00;101665.53;;;3.03;69.42
57048;BME280;42934;54.294;18.598;2023-04-06T07:10:29;101653.53;;;3.09;69.54
57048;BME280;42934;54.294;18.598;2023-04-06T07:12:59;101658.78;;;3.14;70.16
57048;BME280;42934;54.294;18.598;2023-04-06T07:15:28;101662.28;;;3.16;70.37
57048;BME280;42934;54.294;18.598;2023-04-06T07:17:58;101665.13;;;3.34;69.93
57048;BME280;42934;54.294;18.598;2023-04-06T07:20:28;101661.78;;;3.41;70.96
57048;BME280;42934;54.294;18.598;2023-04-06T07:22:58;101668.81;;;3.50;70.05
57048;BME280;42934;54.294;18.598;2023-04-06T07:25:27;101661.09;;;3.58;69.74
57048;BME280;42934;54.294;18.598;2023-04-06T07:27:56;101662.81;;;3.57;70.04
57048;BME280;42934;54.294;18.598;2023-04-06T07:30:26;101662.94;;;3.67;70.34
57048;BME280;42934;54.294;18.598;2023-04-06T07:33:00;101659.59;;;3.78;69.11
57048;BME280;42934;54.294;18.598;2023-04-06T07:35:31;101668.44;;;3.93;69.58
57048;BME280;42934;54.294;18.598;2023-04-06T07:38:00;101663.28;;;3.97;70.37
57048;BME280;42934;54.294;18.598;2023-04-06T07:40:30;101665.13;;;4.07;70.00
57048;BME280;42934;54.294;18.598;2023-04-06T07:43:01;101657.47;;;4.23;70.34
57048;BME280;42934;54.294;18.598;2023-04-06T07:45:31;101657.53;;;4.29;68.83
57048;BME280;42934;54.294;18.598;2023-04-06T07:48:01;101662.00;;;4.42;68.50
57048;BME280;42934;54.294;18.598;2023-04-06T07:50:33;101654.28;;;4.53;67.40
57048;BME280;42934;54.294;18.598;2023-04-06T07:53:04;101660.34;;;4.50;66.69
57048;BME280;42934;54.294;18.598;2023-04-06T07:55:34;101659.44;;;4.50;67.78
57048;BME280;42934;54.294;18.598;2023-04-06T07:58:04;101658.69;;;4.60;68.98
57048;BME280;42934;54.294;18.598;2023-04-06T08:00:33;101653.47;;;4.60;67.77
57048;BME280;42934;54.294;18.598;2023-04-06T08:03:03;101656.03;;;4.55;67.54
57048;BME280;42934;54.294;18.598;2023-04-06T08:05:35;101655.22;;;4.60;68.49
57048;BME280;42934;54.294;18.598;2023-04-06T08:08:10;101646.66;;;4.77;69.41
57048;BME280;42934;54.294;18.598;2023-04-06T08:10:39;101648.50;;;4.94;68.25
57048;BME280;42934;54.294;18.598;2023-04-06T08:13:08;101646.00;;;5.09;67.37
57048;BME280;42934;54.294;18.598;2023-04-06T08:15:38;101656.50;;;5.26;66.60
57048;BME280;42934;54.294;18.598;2023-04-06T08:18:07;101650.53;;;5.45;66.46
57048;BME280;42934;54.294;18.598;2023-04-06T08:20:38;101643.56;;;5.43;64.09
57048;BME280;42934;54.294;18.598;2023-04-06T08:23:08;101648.81;;;5.52;65.34
57048;BME280;42934;54.294;18.598;2023-04-06T08:25:38;101655.81;;;5.64;64.44
57048;BME280;42934;54.294;18.598;2023-04-06T08:28:08;101647.13;;;5.66;64.24
57048;BME280;42934;54.294;18.598;2023-04-06T08:30:40;101650.59;;;5.67;63.38
57048;BME280;42934;54.294;18.598;2023-04-06T08:33:10;101654.03;;;5.47;62.60
57048;BME280;42934;54.294;18.598;2023-04-06T08:35:41;101654.03;;;5.58;62.74
57048;BME280;42934;54.294;18.598;2023-04-06T08:38:10;101654.84;;;5.43;62.44
57048;BME280;42934;54.294;18.598;2023-04-06T08:40:39;101655.69;;;5.41;62.45
57048;BME280;42934;54.294;18.598;2023-04-06T08:43:14;101651.34;;;5.34;61.64
57048;BME280;42934;54.294;18.598;2023-04-06T08:45:43;101653.94;;;5.35;62.45
57048;BME280;42934;54.294;18.598;2023-04-06T08:48:13;101650.50;;;5.36;62.50
57048;BME280;42934;54.294;18.598;2023-04-06T08:50:45;101657.41;;;5.34;62.09
57048;BME280;42934;54.294;18.598;2023-04-06T08:53:16;101656.50;;;5.21;62.40
57048;BME280;42934;54.294;18.598;2023-04-06T08:55:48;101657.31;;;5.14;62.59
57048;BME280;42934;54.294;18.598;2023-04-06T08:58:17;101656.34;;;4.95;61.14
57048;BME280;42934;54.294;18.598;2023-04-06T09:01:07;101649.47;;;5.08;61.92
57048;BME280;42934;54.294;18.598;2023-04-06T09:03:38;101647.75;;;5.13;62.06
57048;BME280;42934;54.294;18.598;2023-04-06T09:06:10;101647.78;;;5.19;62.27
57048;BME280;42934;54.294;18.598;2023-04-06T09:08:41;101652.22;;;5.36;62.42
57048;BME280;42934;54.294;18.598;2023-04-06T09:11:10;101646.19;;;5.44;61.90
57048;BME280;42934;54.294;18.598;2023-04-06T09:13:47;101649.72;;;5.60;61.03
57048;BME280;42934;54.294;18.598;2023-04-06T09:16:16;101652.38;;;5.73;60.66
57048;BME280;42934;54.294;18.598;2023-04-06T09:18:47;101647.19;;;5.82;59.90
57048;BME280;42934;54.294;18.598;2023-04-06T09:21:19;101640.22;;;5.78;58.77
57048;BME280;42934;54.294;18.598;2023-04-06T09:24:00;101648.06;;;5.81;58.35
57048;BME280;42934;54.294;18.598;2023-04-06T09:26:43;101649.75;;;5.73;57.01
57048;BME280;42934;54.294;18.598;2023-04-06T09:29:23;101645.41;;;5.73;57.71
57048;BME280;42934;54.294;18.598;2023-04-06T09:32:03;101642.00;;;5.83;58.10
57048;BME280;42934;54.294;18.598;2023-04-06T09:34:33;101636.84;;;6.00;57.58
57048;BME280;42934;54.294;18.598;2023-04-06T09:37:14;101648.16;;;6.19;57.23
57048;BME280;42934;54.294;18.598;2023-04-06T09:39:44;101643.84;;;6.33;56.95
57048;BME280;42934;54.294;18.598;2023-04-06T09:42:24;101639.50;;;6.51;57.22
57048;BME280;42934;54.294;18.598;2023-04-06T09:44:54;101637.78;;;6.62;56.95
57048;BME280;42934;54.294;18.598;2023-04-06T09:47:23;101637.78;;;6.56;56.51
57048;BME280;42934;54.294;18.598;2023-04-06T09:49:58;101642.97;;;6.34;54.50
57048;BME280;42934;54.294;18.598;2023-04-06T09:52:32;101646.44;;;6.41;55.27
57048;BME280;42934;54.294;18.598;2023-04-06T09:55:03;101647.28;;;6.23;54.61
57048;BME280;42934;54.294;18.598;2023-04-06T09:57:41;101647.31;;;6.43;55.73
57048;BME280;42934;54.294;18.598;2023-04-06T10:00:18;101638.63;;;6.40;56.03
57048;BME280;42934;54.294;18.598;2023-04-06T10:02:54;101641.22;;;6.18;55.18
57048;BME280;42934;54.294;18.598;2023-04-06T10:05:32;101644.69;;;6.23;55.53
57048;BME280;42934;54.294;18.598;2023-04-06T10:08:06;101650.78;;;6.16;55.90
57048;BME280;42934;54.294;18.598;2023-04-06T10:10:39;101646.41;;;6.07;55.38
57048;BME280;42934;54.294;18.598;2023-04-06T10:13:09;101630.69;;;5.90;56.17
57048;BME280;42934;54.294;18.598;2023-04-06T10:15:39;101647.28;;;6.08;56.46
57048;BME280;42934;54.294;18.598;2023-04-06T10:18:08;101651.63;;;6.10;57.88
57048;BME280;42934;54.294;18.598;2023-04-06T10:20:42;101648.16;;;6.19;56.79
57048;BME280;42934;54.294;18.598;2023-04-06T10:23:24;101646.44;;;6.23;56.65
57048;BME280;42934;54.294;18.598;2023-04-06T10:25:57;101642.13;;;6.32;57.07
57048;BME280;42934;54.294;18.598;2023-04-06T10:28:31;101654.28;;;6.24;57.32
57048;BME280;42934;54.294;18.598;2023-04-06T10:31:04;101651.66;;;6.33;57.39
57048;BME280;42934;54.294;18.598;2023-04-06T10:33:33;101642.13;;;6.32;56.25
57048;BME280;42934;54.294;18.598;2023-04-06T10:36:12;101638.63;;;6.41;56.83
57048;BME280;42934;54.294;18.598;2023-04-06T10:38:43;101642.97;;;6.51;56.87
57048;BME280;42934;54.294;18.598;2023-04-06T10:41:17;101624.69;;;6.34;54.53
57048;BME280;42934;54.294;18.598;2023-04-06T10:43:55;101644.72;;;6.51;55.54
57048;BME280;42934;54.294;18.598;2023-04-06T10:46:26;101643.88;;;6.44;55.66
57048;BME280;42934;54.294;18.598;2023-04-06T10:48:55;101636.00;;;6.38;56.64
57048;BME280;42934;54.294;18.598;2023-04-06T10:51:26;101641.22;;;6.35;55.66
57048;BME280;42934;54.294;18.598;2023-04-06T10:53:57;101635.13;;;6.44;56.83
57048;BME280;42934;54.294;18.598;2023-04-06T10:56:27;101636.03;;;6.43;56.45
57048;BME280;42934;54.294;18.598;2023-04-06T10:58:59;101643.84;;;6.41;56.40
57048;BME280;42934;54.294;18.598;2023-04-06T11:01:29;101640.34;;;6.31;56.18
57048;BME280;42934;54.294;18.598;2023-04-06T11:03:58;101637.72;;;6.18;57.36
57048;BME280;42934;54.294;18.598;2023-04-06T11:06:29;101629.94;;;6.24;56.44
57048;BME280;42934;54.294;18.598;2023-04-06T11:09:01;101637.75;;;6.22;57.23
57048;BME280;42934;54.294;18.598;2023-04-06T11:11:31;101625.56;;;6.13;58.10
57048;BME280;42934;54.294;18.598;2023-04-06T11:14:00;101622.13;;;6.24;57.32
57048;BME280;42934;54.294;18.598;2023-04-06T11:16:32;101621.22;;;6.40;57.03
57048;BME280;42934;54.294;18.598;2023-04-06T11:19:03;101613.41;;;6.40;57.15
57048;BME280;42934;54.294;18.598;2023-04-06T11:21:35;101607.31;;;6.38;56.66
57048;BME280;42934;54.294;18.598;2023-04-06T11:24:12;101615.13;;;6.32;56.62
57048;BME280;42934;54.294;18.598;2023-04-06T11:26:44;101616.03;;;6.35;57.44
57048;BME280;42934;54.294;18.598;2023-04-06T11:29:17;101620.38;;;6.21;57.01
57048;BME280;42934;54.294;18.598;2023-04-06T11:31:48;101619.47;;;6.05;57.14
57048;BME280;42934;54.294;18.598;2023-04-06T11:34:19;101615.16;;;6.18;56.44
57048;BME280;42934;54.294;18.598;2023-04-06T11:36:53;101610.78;;;6.26;56.61
57048;BME280;42934;54.294;18.598;2023-04-06T11:39:26;101598.63;;;6.39;56.91
57048;BME280;42934;54.294;18.598;2023-04-06T11:41:59;101604.69;;;6.55;55.71
57048;BME280;42934;54.294;18.598;2023-04-06T11:44:33;101595.97;;;6.79;55.49
57048;BME280;42934;54.294;18.598;2023-04-06T11:47:04;101596.84;;;6.86;55.43
57048;BME280;42934;54.294;18.598;2023-04-06T11:49:37;101597.66;;;7.01;55.39
57048;BME280;42934;54.294;18.598;2023-04-06T11:52:16;101601.06;;;7.20;53.83
57048;BME280;42934;54.294;18.598;2023-04-06T11:54:48;101594.09;;;7.33;53.59
57048;BME280;42934;54.294;18.598;2023-04-06T11:57:19;101589.63;;;7.52;53.77
57048;BME280;42934;54.294;18.598;2023-04-06T11:59:50;101582.63;;;7.57;52.45
57048;BME280;42934;54.294;18.598;2023-04-06T12:02:20;101586.94;;;7.66;51.93
57048;BME280;42934;54.294;18.598;2023-04-06T12:04:50;101587.84;;;7.63;51.66
57048;BME280;42934;54.294;18.598;2023-04-06T12:07:19;101596.63;;;7.50;51.98
57048;BME280;42934;54.294;18.598;2023-04-06T12:09:50;101587.91;;;7.51;51.91
57048;BME280;42934;54.294;18.598;2023-04-06T12:12:19;101575.69;;;7.56;52.35
57048;BME280;42934;54.294;18.598;2023-04-06T12:14:48;101586.13;;;7.58;52.09
57048;BME280;42934;54.294;18.598;2023-04-06T12:17:19;101578.25;;;7.65;52.53
57048;BME280;42934;54.294;18.598;2023-04-06T12:19:49;101578.19;;;7.70;52.92
57048;BME280;42934;54.294;18.598;2023-04-06T12:22:19;101577.31;;;7.72;52.90
57048;BME280;42934;54.294;18.598;2023-04-06T12:24:49;101559.03;;;7.74;52.82
57048;BME280;42934;54.294;18.598;2023-04-06T12:27:19;101567.66;;;7.88;52.52
57048;BME280;42934;54.294;18.598;2023-04-06T12:29:48;101565.91;;;7.87;52.56
57048;BME280;42934;54.294;18.598;2023-04-06T12:32:17;101561.50;;;7.92;52.53
57048;BME280;42934;54.294;18.598;2023-04-06T12:34:47;101564.00;;;8.09;52.56
57048;BME280;42934;54.294;18.598;2023-04-06T12:37:19;101570.91;;;8.16;52.22
57048;BME280;42934;54.294;18.598;2023-04-06T12:39:50;101560.38;;;8.27;52.09
57048;BME280;42934;54.294;18.598;2023-04-06T12:42:21;101549.78;;;8.38;51.92
57048;BME280;42934;54.294;18.598;2023-04-06T12:44:50;101555.16;;;8.24;51.57
57048;BME280;42934;54.294;18.598;2023-04-06T12:47:20;101550.66;;;8.43;52.41
57048;BME280;42934;54.294;18.598;2023-04-06T12:49:50;101547.16;;;8.44;52.06
57048;BME280;42934;54.294;18.598;2023-04-06T12:52:19;101548.81;;;8.53;51.63
57048;BME280;42934;54.294;18.598;2023-04-06T12:54:50;101542.75;;;8.49;51.32
57048;BME280;42934;54.294;18.598;2023-04-06T12:57:21;101551.47;;;8.51;51.77
57048;BME280;42934;54.294;18.598;2023-04-06T12:59:50;101543.66;;;8.45;51.26
57048;BME280;42934;54.294;18.598;2023-04-06T13:02:19;101531.50;;;8.35;50.97
57048;BME280;42934;54.294;18.598;2023-04-06T13:04:50;101537.56;;;8.45;50.59
57048;BME280;42934;54.294;18.598;2023-04-06T13:07:19;101521.19;;;8.19;51.33
57048;BME280;42934;54.294;18.598;2023-04-06T13:09:50;101538.72;;;8.10;52.49
57048;BME280;42934;54.294;18.598;2023-04-06T13:12:20;101539.53;;;8.16;52.11